createdAt,value
2019-02-08T00:00:44.521Z,82.97
2019-02-08T00:01:48.627Z,83.03
2019-02-08T00:02:52.734Z,83.19
2019-02-08T00:03:56.726Z,83.30
2019-02-08T00:05:00.722Z,83.01
2019-02-08T00:06:04.968Z,82.94
2019-02-08T00:07:09.024Z,82.62
2019-02-08T00:08:13.199Z,83.18
2019-02-08T00:09:17.347Z,82.85
2019-02-08T00:10:21.544Z,82.96
2019-02-08T00:11:25.624Z,82.91
2019-02-08T00:12:29.649Z,83.01
2019-02-08T00:13:33.665Z,82.99
2019-02-08T00:14:37.667Z,83.33
2019-02-08T00:15:41.737Z,82.80
2019-02-08T00:16:45.836Z,83.01
2019-02-08T00:17:49.983Z,82.99
2019-02-08T00:18:54.047Z,83.49
2019-02-08T00:19:58.080Z,83.13
2019-02-08T00:21:02.094Z,83.29
2019-02-08T00:22:07.127Z,83.03
2019-02-08T00:23:11.184Z,83.16
2019-02-08T00:24:15.351Z,83.00
2019-02-08T00:25:19.767Z,83.25
2019-02-08T00:26:24.185Z,83.21
2019-02-08T00:27:28.604Z,83.22
2019-02-08T00:28:33.212Z,82.90
2019-02-08T00:29:37.505Z,82.90
2019-02-08T00:30:41.821Z,83.28
2019-02-08T00:31:46.028Z,83.17
2019-02-08T00:32:50.376Z,83.30
2019-02-08T00:33:54.658Z,82.89
2019-02-08T00:34:58.940Z,83.58
2019-02-08T00:36:03.264Z,83.15
2019-02-08T00:37:07.529Z,83.26
2019-02-08T00:38:11.848Z,83.10
2019-02-08T00:39:16.372Z,83.19
2019-02-08T00:40:20.553Z,83.79
2019-02-08T00:41:24.661Z,83.58
2019-02-08T00:42:28.876Z,83.66
2019-02-08T00:43:32.940Z,84.06
2019-02-08T00:44:37.013Z,83.75
2019-02-08T00:45:41.017Z,83.58
2019-02-08T00:46:45.099Z,84.21
2019-02-08T00:47:49.124Z,83.92
2019-02-08T00:48:53.159Z,83.89
2019-02-08T00:49:57.182Z,84.06
2019-02-08T00:51:01.407Z,83.67
2019-02-08T00:52:05.657Z,84.48
2019-02-08T00:53:10.049Z,83.92
2019-02-08T00:54:14.511Z,84.24
2019-02-08T00:55:19.049Z,84.26
2019-02-08T00:56:23.360Z,84.54
2019-02-08T00:57:27.672Z,84.13
2019-02-08T00:58:31.873Z,83.89
2019-02-08T00:59:36.145Z,83.83
2019-02-08T01:00:40.478Z,84.20
2019-02-08T01:01:44.807Z,84.18
2019-02-08T01:02:49.305Z,84.49
2019-02-08T01:03:53.657Z,84.99
2019-02-08T01:04:58.348Z,84.84
2019-02-08T01:06:02.626Z,84.63
2019-02-08T01:07:07.132Z,84.47
2019-02-08T01:08:11.254Z,84.76
2019-02-08T01:09:15.352Z,84.69
2019-02-08T01:10:24.015Z,84.42
2019-02-08T01:11:28.042Z,84.70
2019-02-08T01:12:32.041Z,83.95
2019-02-08T01:13:36.033Z,84.49
2019-02-08T01:14:40.113Z,84.44
2019-02-08T01:15:44.258Z,84.62
2019-02-08T01:16:48.246Z,85.07
2019-02-08T01:17:52.348Z,85.23
2019-02-08T01:18:56.423Z,84.92
2019-02-08T01:20:00.536Z,84.16
2019-02-08T01:21:11.278Z,84.77
2019-02-08T01:22:15.301Z,84.84
2019-02-08T01:23:19.381Z,84.84
2019-02-08T01:24:24.257Z,84.43
2019-02-08T01:25:27.754Z,84.85
2019-02-08T01:26:31.834Z,85.16
2019-02-08T01:27:35.882Z,85.11
2019-02-08T01:28:39.932Z,84.66
2019-02-08T01:29:43.988Z,84.39
2019-02-08T01:30:48.043Z,84.37
2019-02-08T01:31:52.117Z,84.95
2019-02-08T01:32:56.308Z,84.87
2019-02-08T01:34:00.319Z,85.50
2019-02-08T01:35:04.590Z,84.54
2019-02-08T01:36:08.643Z,84.59
2019-02-08T01:37:12.777Z,84.94
2019-02-08T01:38:16.979Z,84.72
2019-02-08T01:39:20.991Z,84.52
2019-02-08T01:40:29.052Z,84.39
2019-02-08T01:41:33.116Z,84.24
2019-02-08T01:42:37.797Z,84.58
2019-02-08T01:43:42.150Z,84.29
2019-02-08T01:44:46.468Z,84.61
2019-02-08T01:45:50.741Z,84.55
2019-02-08T01:46:54.973Z,84.76
2019-02-08T01:47:59.460Z,85.12
2019-02-08T01:49:03.785Z,84.80
2019-02-08T01:50:10.337Z,85.03
2019-02-08T01:51:14.618Z,84.65
2019-02-08T01:52:19.052Z,85.00
2019-02-08T01:53:23.516Z,84.88
2019-02-08T01:54:27.885Z,84.93
2019-02-08T01:55:32.205Z,85.28
2019-02-08T01:56:36.492Z,84.64
2019-02-08T01:57:40.829Z,85.23
2019-02-08T01:58:45.253Z,85.23
2019-02-08T01:59:49.623Z,84.91
2019-02-08T02:00:53.952Z,84.06
2019-02-08T02:01:58.245Z,84.69
2019-02-08T02:03:02.668Z,84.96
2019-02-08T02:04:07.008Z,84.91
2019-02-08T02:05:11.403Z,84.28
2019-02-08T02:06:15.743Z,84.48
2019-02-08T02:07:20.000Z,84.55
2019-02-08T02:08:24.247Z,84.91
2019-02-08T02:09:28.753Z,85.20
2019-02-08T02:10:35.540Z,85.09
2019-02-08T02:11:39.824Z,84.84
2019-02-08T02:12:44.218Z,84.24
2019-02-08T02:13:48.533Z,84.34
2019-02-08T02:14:52.894Z,84.66
2019-02-08T02:15:57.238Z,84.98
2019-02-08T02:17:01.406Z,84.67
2019-02-08T02:18:06.141Z,84.57
2019-02-08T02:19:10.578Z,84.97
2019-02-08T02:20:15.518Z,85.06
2019-02-08T02:21:19.922Z,84.67
2019-02-08T02:22:24.299Z,84.94
2019-02-08T02:23:28.644Z,85.18
2019-02-08T02:24:32.887Z,84.74
2019-02-08T02:25:37.287Z,84.23
2019-02-08T02:26:41.672Z,84.34
2019-02-08T02:27:46.125Z,84.34
2019-02-08T02:28:50.385Z,84.44
2019-02-08T02:29:54.674Z,84.51
2019-02-08T02:30:58.976Z,84.33
2019-02-08T02:32:03.400Z,84.76
2019-02-08T02:33:09.217Z,84.48
2019-02-08T02:34:13.638Z,84.90
2019-02-08T02:35:18.149Z,84.93
2019-02-08T02:36:22.607Z,84.43
2019-02-08T02:37:26.989Z,85.06
2019-02-08T02:38:31.270Z,84.81
2019-02-08T02:39:35.600Z,84.93
2019-02-08T02:40:40.058Z,84.58
2019-02-08T02:41:44.326Z,84.79
2019-02-08T02:42:48.380Z,85.06
2019-02-08T02:43:52.343Z,84.66
2019-02-08T02:44:56.349Z,84.57
2019-02-08T02:46:00.463Z,84.85
2019-02-08T02:47:04.560Z,84.97
2019-02-08T02:48:10.793Z,84.89
2019-02-08T02:49:14.823Z,85.12
2019-02-08T02:50:19.026Z,85.28
2019-02-08T02:51:23.067Z,84.50
2019-02-08T02:52:27.072Z,84.97
2019-02-08T02:53:31.050Z,85.30
2019-02-08T02:54:35.153Z,84.92
2019-02-08T02:55:39.228Z,85.14
2019-02-08T02:56:43.320Z,85.46
2019-02-08T02:57:47.382Z,84.81
2019-02-08T02:58:51.370Z,85.13
2019-02-08T02:59:55.377Z,84.97
2019-02-08T03:00:59.442Z,84.72
2019-02-08T03:02:03.545Z,84.92
2019-02-08T03:03:07.756Z,85.03
2019-02-08T03:04:11.840Z,84.54
2019-02-08T03:05:16.039Z,84.47
2019-02-08T03:06:20.123Z,85.06
2019-02-08T03:07:24.241Z,85.03
2019-02-08T03:08:28.251Z,84.80
2019-02-08T03:09:32.249Z,85.22
2019-02-08T03:10:36.362Z,84.78
2019-02-08T03:11:40.375Z,84.69
2019-02-08T03:12:44.511Z,85.13
2019-02-08T03:13:48.543Z,85.73
2019-02-08T03:14:52.577Z,85.28
2019-02-08T03:15:56.734Z,85.10
2019-02-08T03:17:00.714Z,85.32
2019-02-08T03:18:05.252Z,85.45
2019-02-08T03:19:09.385Z,84.87
2019-02-08T03:20:14.926Z,84.99
2019-02-08T03:21:18.998Z,85.50
2019-02-08T03:22:23.023Z,85.50
2019-02-08T03:23:27.215Z,85.74
2019-02-08T03:24:31.222Z,85.55
2019-02-08T03:25:35.395Z,85.19
2019-02-08T03:26:39.453Z,85.29
2019-02-08T03:27:43.510Z,85.37
2019-02-08T03:28:47.600Z,85.73
2019-02-08T03:29:51.629Z,85.40
2019-02-08T03:30:57.820Z,84.93
2019-02-08T03:32:01.879Z,85.55
2019-02-08T03:33:06.060Z,85.36
2019-02-08T03:34:10.209Z,85.37
2019-02-08T03:35:17.301Z,85.73
2019-02-08T03:36:21.329Z,85.46
2019-02-08T03:37:25.319Z,85.63
2019-02-08T03:38:29.338Z,85.77
2019-02-08T03:39:33.405Z,85.97
2019-02-08T03:40:37.514Z,85.57
2019-02-08T03:41:41.527Z,85.47
2019-02-08T03:42:45.639Z,85.79
2019-02-08T03:43:49.646Z,85.90
2019-02-08T03:44:53.685Z,85.66
2019-02-08T03:46:04.497Z,85.70
2019-02-08T03:47:08.499Z,85.88
2019-02-08T03:48:13.090Z,85.19
2019-02-08T03:49:17.270Z,85.77
2019-02-08T03:50:21.835Z,85.04
2019-02-08T03:51:25.840Z,85.48
2019-02-08T03:52:29.880Z,85.56
2019-02-08T03:53:33.893Z,85.73
2019-02-08T03:54:37.870Z,85.95
2019-02-08T03:55:42.052Z,86.02
2019-02-08T03:56:46.078Z,86.42
2019-02-08T03:57:50.227Z,86.12
2019-02-08T03:58:54.231Z,86.09
2019-02-08T03:59:58.223Z,85.87
2019-02-08T04:01:04.346Z,85.51
2019-02-08T04:02:08.425Z,86.16
2019-02-08T04:03:12.490Z,86.42
2019-02-08T04:04:17.351Z,86.25
2019-02-08T04:05:21.385Z,86.31
2019-02-08T04:06:25.525Z,85.78
2019-02-08T04:07:29.556Z,86.44
2019-02-08T04:08:33.679Z,86.77
2019-02-08T04:09:37.721Z,86.15
2019-02-08T04:10:41.796Z,86.41
2019-02-08T04:11:45.896Z,86.16
2019-02-08T04:12:49.924Z,86.55
2019-02-08T04:13:53.922Z,86.53
2019-02-08T04:14:57.960Z,86.79
2019-02-08T04:16:01.986Z,85.74
2019-02-08T04:17:06.073Z,86.57
2019-02-08T04:18:10.158Z,86.62
2019-02-08T04:19:14.183Z,86.15
2019-02-08T04:20:18.371Z,86.06
2019-02-08T04:21:22.369Z,86.08
2019-02-08T04:22:26.497Z,86.48
2019-02-08T04:23:30.556Z,86.11
2019-02-08T04:24:34.580Z,87.01
2019-02-08T04:25:38.612Z,86.36
2019-02-08T04:26:42.622Z,86.57
2019-02-08T04:27:46.718Z,86.64
2019-02-08T04:28:50.710Z,86.74
2019-02-08T04:29:54.742Z,86.10
2019-02-08T04:30:58.748Z,86.61
2019-02-08T04:32:02.817Z,86.69
2019-02-08T04:33:06.898Z,86.20
2019-02-08T04:34:10.927Z,86.45
2019-02-08T04:35:15.004Z,86.30
2019-02-08T04:36:19.010Z,86.94
2019-02-08T04:37:23.082Z,86.06
2019-02-08T04:38:27.116Z,86.34
2019-02-08T04:39:31.117Z,86.34
2019-02-08T04:40:35.096Z,86.30
2019-02-08T04:41:39.103Z,85.98
2019-02-08T04:42:43.121Z,86.83
2019-02-08T04:43:47.185Z,86.46
2019-02-08T04:44:51.160Z,86.55
2019-02-08T04:45:55.159Z,86.65
2019-02-08T04:46:59.161Z,87.11
2019-02-08T04:48:03.172Z,87.08
2019-02-08T04:49:07.365Z,86.16
2019-02-08T04:50:13.753Z,86.90
2019-02-08T04:51:17.932Z,86.66
2019-02-08T04:52:21.943Z,86.46
2019-02-08T04:53:25.915Z,86.29
2019-02-08T04:54:37.912Z,86.09
2019-02-08T04:55:34.093Z,85.87
2019-02-08T04:56:38.096Z,86.17
2019-02-08T04:57:42.195Z,86.65
2019-02-08T04:58:46.205Z,86.42
2019-02-08T04:59:50.306Z,86.43
2019-02-08T05:00:54.296Z,86.26
2019-02-08T05:01:58.292Z,86.82
2019-02-08T05:03:02.407Z,86.57
2019-02-08T05:04:06.628Z,86.67
2019-02-08T05:05:10.941Z,85.97
2019-02-08T05:06:14.930Z,86.31
2019-02-08T05:07:18.937Z,86.24
2019-02-08T05:08:22.917Z,86.65
2019-02-08T05:09:27.186Z,86.38
2019-02-08T05:10:31.787Z,86.83
2019-02-08T05:11:35.865Z,86.65
2019-02-08T05:12:39.886Z,87.01
2019-02-08T05:13:43.887Z,87.08
2019-02-08T05:14:47.913Z,87.28
2019-02-08T05:15:51.965Z,87.15
2019-02-08T05:16:55.983Z,86.49
2019-02-08T05:18:00.022Z,86.04
2019-02-08T05:19:04.127Z,86.50
2019-02-08T05:20:09.159Z,87.00
2019-02-08T05:21:13.193Z,86.79
2019-02-08T05:22:17.221Z,87.17
2019-02-08T05:23:21.246Z,87.40
2019-02-08T05:24:25.339Z,86.41
2019-02-08T05:25:29.441Z,86.47
2019-02-08T05:26:33.509Z,86.49
2019-02-08T05:27:37.535Z,86.59
2019-02-08T05:28:41.571Z,86.75
2019-02-08T05:29:45.574Z,86.54
2019-02-08T05:30:49.596Z,86.79
2019-02-08T05:31:53.691Z,86.77
2019-02-08T05:32:57.765Z,87.07
2019-02-08T05:34:01.800Z,87.21
2019-02-08T05:35:06.334Z,87.12
2019-02-08T05:36:10.382Z,87.26
2019-02-08T05:37:14.474Z,86.99
2019-02-08T05:38:18.492Z,87.32
2019-02-08T05:39:22.545Z,86.95
2019-02-08T05:40:26.620Z,86.95
2019-02-08T05:41:30.621Z,87.18
2019-02-08T05:42:34.638Z,87.18
2019-02-08T05:43:38.644Z,86.78
2019-02-08T05:44:42.800Z,87.21
2019-02-08T05:45:46.814Z,87.32
2019-02-08T05:46:50.813Z,87.24
2019-02-08T05:47:54.866Z,86.99
2019-02-08T05:48:58.912Z,87.07
2019-02-08T05:50:02.991Z,87.53
2019-02-08T05:51:06.976Z,87.15
2019-02-08T05:52:11.038Z,87.41
2019-02-08T05:53:15.163Z,87.77
2019-02-08T05:54:19.288Z,87.04
2019-02-08T05:55:25.360Z,87.58
2019-02-08T05:56:29.490Z,87.18
2019-02-08T05:57:33.532Z,86.60
2019-02-08T05:58:37.573Z,86.99
2019-02-08T05:59:41.580Z,86.71
2019-02-08T06:00:49.932Z,86.56
2019-02-08T06:01:53.947Z,87.50
2019-02-08T06:02:58.045Z,87.53
2019-02-08T06:04:02.116Z,88.07
2019-02-08T06:05:07.107Z,87.88
2019-02-08T06:06:11.133Z,87.54
2019-02-08T06:07:15.101Z,87.26
2019-02-08T06:08:19.229Z,87.41
2019-02-08T06:09:23.381Z,87.23
2019-02-08T06:10:27.393Z,87.21
2019-02-08T06:11:33.002Z,87.15
2019-02-08T06:12:35.609Z,86.91
2019-02-08T06:13:39.745Z,86.54
2019-02-08T06:14:43.853Z,87.18
2019-02-08T06:15:47.857Z,87.01
2019-02-08T06:16:51.887Z,87.37
2019-02-08T06:17:55.938Z,88.07
2019-02-08T06:19:00.000Z,87.52
2019-02-08T06:20:04.657Z,87.15
2019-02-08T06:21:08.672Z,87.03
2019-02-08T06:22:12.725Z,87.70
2019-02-08T06:23:16.758Z,87.29
2019-02-08T06:24:20.778Z,86.56
2019-02-08T06:25:25.094Z,86.54
2019-02-08T06:26:29.223Z,87.20
2019-02-08T06:27:33.228Z,87.05
2019-02-08T06:28:37.239Z,86.76
2019-02-08T06:29:41.268Z,86.60
2019-02-08T06:30:45.469Z,87.32
2019-02-08T06:31:49.526Z,86.48
2019-02-08T06:32:53.597Z,87.04
2019-02-08T06:33:57.657Z,86.86
2019-02-08T06:35:01.719Z,87.29
2019-02-08T06:36:05.838Z,86.63
2019-02-08T06:37:09.905Z,87.18
2019-02-08T06:38:13.980Z,87.34
2019-02-08T06:39:18.058Z,87.20
2019-02-08T06:40:23.594Z,86.84
2019-02-08T06:41:27.731Z,86.78
2019-02-08T06:42:31.777Z,86.82
2019-02-08T06:43:35.822Z,87.26
2019-02-08T06:44:39.899Z,87.00
2019-02-08T06:45:44.015Z,87.23
2019-02-08T06:46:48.031Z,87.06
2019-02-08T06:47:52.169Z,87.10
2019-02-08T06:48:56.201Z,87.04
2019-02-08T06:50:00.868Z,86.67
2019-02-08T06:51:04.993Z,87.11
2019-02-08T06:52:09.151Z,87.43
2019-02-08T06:53:13.248Z,87.57
2019-02-08T06:54:17.382Z,87.15
2019-02-08T06:55:21.533Z,87.18
2019-02-08T06:56:30.503Z,87.14
2019-02-08T06:57:38.629Z,86.45
2019-02-08T06:58:47.636Z,87.24
2019-02-08T06:59:56.583Z,86.90
2019-02-08T07:02:03.388Z,86.68
2019-02-08T07:03:15.319Z,87.21
2019-02-08T07:04:56.813Z,87.30
2019-02-08T07:06:36.077Z,86.63
2019-02-08T07:07:45.278Z,87.21
2019-02-08T07:09:25.468Z,86.61
2019-02-08T07:10:36.373Z,86.98
2019-02-08T07:11:45.615Z,87.29
2019-02-08T07:13:13.744Z,87.03
2019-02-08T07:14:29.849Z,87.01
2019-02-08T07:15:43.922Z,87.12
2019-02-08T07:16:54.832Z,87.63
2019-02-08T07:18:05.785Z,87.36
2019-02-08T07:19:17.890Z,87.00
2019-02-08T07:20:26.939Z,86.91
2019-02-08T07:22:06.576Z,86.75
2019-02-08T07:23:19.420Z,86.99
2019-02-08T07:24:30.488Z,87.12
2019-02-08T07:26:40.261Z,87.46
2019-02-08T07:27:56.257Z,87.18
2019-02-08T07:30:04.091Z,87.20
2019-02-08T07:32:15.887Z,86.95
2019-02-08T07:33:24.953Z,87.22
2019-02-08T07:34:34.285Z,87.00
2019-02-08T07:37:46.163Z,86.68
2019-02-08T07:38:56.274Z,86.72
2019-02-08T07:41:12.960Z,87.03
2019-02-08T07:42:21.128Z,87.21
2019-02-08T07:43:44.308Z,86.74
2019-02-08T07:44:53.588Z,86.95
2019-02-08T07:47:07.676Z,87.02
2019-02-08T07:48:16.794Z,86.74
2019-02-08T07:49:28.813Z,86.78
2019-02-08T07:50:47.875Z,87.05
2019-02-08T07:51:58.809Z,86.95
2019-02-08T07:53:38.199Z,87.35
2019-02-08T07:54:51.413Z,86.24
2019-02-08T07:56:07.561Z,86.35
2019-02-08T07:57:17.635Z,87.46
2019-02-08T07:58:33.772Z,87.15
2019-02-08T07:59:44.846Z,87.38
2019-02-08T08:00:56.934Z,86.90
2019-02-08T08:02:06.010Z,86.88
2019-02-08T08:03:16.230Z,86.87
2019-02-08T08:04:26.299Z,86.93
2019-02-08T08:05:38.249Z,86.78
2019-02-08T08:07:51.672Z,87.00
2019-02-08T08:09:00.932Z,86.69
2019-02-08T08:10:16.689Z,87.19
2019-02-08T08:11:30.635Z,87.16
2019-02-08T08:13:42.550Z,86.64
2019-02-08T08:14:55.681Z,86.88
2019-02-08T08:16:09.613Z,87.23
2019-02-08T08:19:27.485Z,86.80
2019-02-08T08:21:44.275Z,86.95
2019-02-08T08:22:53.315Z,86.89
2019-02-08T08:24:08.445Z,86.50
2019-02-08T08:25:18.550Z,86.74
2019-02-08T08:26:29.596Z,86.46
2019-02-08T08:28:41.585Z,86.29
2019-02-08T08:30:21.060Z,86.39
2019-02-08T08:31:29.280Z,86.26
2019-02-08T08:32:37.644Z,85.89
2019-02-08T08:33:49.411Z,86.98
2019-02-08T08:35:02.917Z,86.80
2019-02-08T08:36:21.121Z,86.74
2019-02-08T08:39:42.568Z,86.50
2019-02-08T08:41:07.114Z,86.14
2019-02-08T08:45:30.221Z,86.38
2019-02-08T08:48:47.534Z,86.41
2019-02-08T08:50:11.938Z,86.03
2019-02-08T08:53:29.426Z,86.42
2019-02-08T08:57:02.160Z,85.92
2019-02-08T08:58:19.129Z,85.87
2019-02-08T09:02:35.942Z,85.86
2019-02-08T09:03:58.413Z,86.56
2019-02-08T09:05:54.270Z,86.54
2019-02-08T09:07:53.361Z,86.81
2019-02-08T09:11:16.771Z,86.41
2019-02-08T09:12:29.889Z,86.39
2019-02-08T09:14:50.202Z,86.71
2019-02-08T09:20:13.829Z,86.86
2019-02-08T09:21:33.420Z,86.98
2019-02-08T09:24:50.885Z,87.15
2019-02-08T09:26:43.691Z,86.78
2019-02-08T09:28:18.305Z,87.25
2019-02-08T09:30:13.999Z,86.67
2019-02-08T09:31:37.764Z,87.15
2019-02-08T09:33:54.212Z,86.81
2019-02-08T09:35:23.081Z,86.90
2019-02-08T09:36:47.328Z,87.31
2019-02-08T09:37:58.020Z,87.12
2019-02-08T09:39:12.981Z,86.75
2019-02-08T09:40:37.209Z,86.92
2019-02-08T09:58:41.375Z,86.54
2019-02-08T10:01:04.117Z,86.39
2019-02-08T10:03:24.587Z,86.52
2019-02-08T10:04:54.631Z,86.54
2019-02-08T10:06:12.218Z,86.54
2019-02-08T10:07:29.867Z,86.82
2019-02-08T10:08:50.426Z,86.07
2019-02-08T10:14:10.650Z,86.18
2019-02-08T10:17:30.659Z,86.21
2019-02-08T10:18:48.513Z,85.61
2019-02-08T10:20:03.194Z,86.10
2019-02-08T10:21:30.833Z,86.50
2019-02-08T10:24:50.720Z,86.00
2019-02-08T10:26:06.624Z,86.15
2019-02-08T10:27:31.313Z,86.47
2019-02-08T10:30:48.977Z,86.22
2019-02-08T10:34:06.045Z,87.17
2019-02-08T10:35:25.425Z,86.34
2019-02-08T10:38:50.478Z,86.54
2019-02-08T10:42:26.792Z,86.88
2019-02-08T10:43:43.744Z,86.65
2019-02-08T10:45:23.609Z,87.02
2019-02-08T10:47:53.942Z,86.75
2019-02-08T10:51:21.553Z,86.59
2019-02-08T10:52:47.955Z,86.62
2019-02-08T10:56:14.883Z,87.36
2019-02-08T11:01:41.987Z,86.45
2019-02-08T11:07:02.328Z,86.26
2019-02-08T11:10:20.088Z,86.15
2019-02-08T11:11:42.648Z,85.60
2019-02-08T11:12:57.747Z,85.26
2019-02-08T11:14:13.355Z,85.55
2019-02-08T11:15:56.215Z,85.09
2019-02-08T11:17:11.157Z,85.18
2019-02-08T11:18:34.424Z,85.13
2019-02-08T11:19:36.921Z,84.97
2019-02-08T11:20:40.986Z,84.89
2019-02-08T11:21:45.117Z,84.56
2019-02-08T11:22:49.147Z,84.40
2019-02-08T11:23:53.182Z,84.25
2019-02-08T11:24:57.224Z,84.23
2019-02-08T11:26:01.286Z,84.23
2019-02-08T11:27:05.470Z,84.18
2019-02-08T11:28:09.468Z,83.98
2019-02-08T11:29:13.646Z,84.28
2019-02-08T11:30:18.229Z,83.87
2019-02-08T11:31:22.371Z,84.32
2019-02-08T11:32:40.884Z,84.06
2019-02-08T11:33:30.741Z,83.92
2019-02-08T11:34:34.798Z,83.78
2019-02-08T11:35:38.842Z,83.42
2019-02-08T11:36:42.982Z,83.79
2019-02-08T11:37:47.085Z,83.60
2019-02-08T11:38:51.153Z,83.50
2019-02-08T11:39:55.384Z,83.06
2019-02-08T11:40:59.533Z,82.98
2019-02-08T11:42:03.574Z,83.08
2019-02-08T11:43:07.698Z,82.70
2019-02-08T11:44:11.807Z,82.97
2019-02-08T11:45:15.921Z,82.61
2019-02-08T11:46:20.119Z,82.34
2019-02-08T11:47:24.122Z,82.35
2019-02-08T11:48:28.207Z,81.70
2019-02-08T11:49:32.222Z,81.80
2019-02-08T11:50:36.388Z,81.95
2019-02-08T11:51:40.537Z,81.94
2019-02-08T11:52:44.668Z,82.08
2019-02-08T11:53:48.769Z,82.00
2019-02-08T11:54:52.785Z,81.29
2019-02-08T11:55:56.809Z,82.06
2019-02-08T11:57:00.832Z,82.17
2019-02-08T11:58:05.018Z,81.90
2019-02-08T11:59:09.236Z,81.90
2019-02-08T12:00:17.775Z,81.74
2019-02-08T12:01:21.892Z,81.61
2019-02-08T12:02:25.886Z,81.98
2019-02-08T12:03:29.897Z,81.29
2019-02-08T12:04:34.009Z,81.75
2019-02-08T12:05:38.048Z,82.02
2019-02-08T12:06:42.137Z,81.60
2019-02-08T12:07:46.268Z,81.20
2019-02-08T12:08:50.312Z,81.69
2019-02-08T12:09:54.301Z,81.54
2019-02-08T12:10:58.417Z,81.15
2019-02-08T12:12:02.521Z,80.99
2019-02-08T12:13:06.590Z,81.81
2019-02-08T12:14:10.683Z,81.72
2019-02-08T12:15:15.562Z,81.94
2019-02-08T12:16:19.710Z,81.62
2019-02-08T12:17:23.713Z,81.59
2019-02-08T12:18:27.813Z,81.59
2019-02-08T12:19:31.876Z,81.22
2019-02-08T12:20:35.977Z,81.35
2019-02-08T12:21:40.117Z,81.21
2019-02-08T12:22:44.168Z,80.99
2019-02-08T12:23:48.202Z,81.49
2019-02-08T12:24:52.566Z,81.75
2019-02-08T12:25:56.452Z,81.05
2019-02-08T12:27:00.480Z,80.87
2019-02-08T12:28:04.599Z,81.59
2019-02-08T12:29:09.029Z,81.51
2019-02-08T12:30:17.773Z,81.74
2019-02-08T12:31:21.897Z,81.61
2019-02-08T12:32:25.905Z,81.74
2019-02-08T12:33:29.982Z,81.62
2019-02-08T12:34:33.986Z,81.73
2019-02-08T12:35:38.097Z,81.59
2019-02-08T12:36:42.168Z,81.53
2019-02-08T12:37:46.296Z,81.64
2019-02-08T12:38:50.328Z,81.76
2019-02-08T12:40:57.500Z,81.78
2019-02-08T12:42:01.709Z,81.43
2019-02-08T12:43:06.163Z,81.28
2019-02-08T12:44:10.542Z,81.56
2019-02-08T12:45:14.956Z,81.36
2019-02-08T12:46:19.112Z,81.66
2019-02-08T12:47:23.103Z,81.60
2019-02-08T12:48:27.087Z,81.19
2019-02-08T12:49:31.110Z,81.73
2019-02-08T12:50:35.213Z,81.45
2019-02-08T12:51:39.328Z,82.02
2019-02-08T12:52:43.340Z,81.82
2019-02-08T12:53:47.416Z,81.85
2019-02-08T12:54:51.536Z,81.82
2019-02-08T12:55:55.548Z,81.89
2019-02-08T12:56:59.737Z,81.86
2019-02-08T12:58:03.809Z,81.76
2019-02-08T12:59:07.921Z,81.75
2019-02-08T13:00:15.016Z,81.66
2019-02-08T13:01:19.121Z,81.62
2019-02-08T13:02:23.271Z,81.79
2019-02-08T13:03:27.279Z,81.66
2019-02-08T13:04:31.337Z,81.76
2019-02-08T13:05:35.429Z,81.70
2019-02-08T13:06:39.502Z,81.71
2019-02-08T13:07:43.554Z,82.02
2019-02-08T13:08:47.549Z,81.94
2019-02-08T13:09:51.596Z,82.33
2019-02-08T13:10:55.664Z,82.18
2019-02-08T13:11:59.689Z,82.18
2019-02-08T13:13:03.808Z,81.88
2019-02-08T13:14:07.911Z,81.98
2019-02-08T13:15:12.321Z,82.16
2019-02-08T13:16:16.388Z,81.99
2019-02-08T13:17:20.456Z,82.08
2019-02-08T13:18:24.523Z,81.96
2019-02-08T13:19:28.561Z,82.05
2019-02-08T13:20:32.709Z,82.31
2019-02-08T13:21:36.697Z,82.04
2019-02-08T13:22:40.701Z,81.82
2019-02-08T13:23:44.838Z,82.23
2019-02-08T13:24:48.862Z,81.90
2019-02-08T13:25:52.969Z,81.85
2019-02-08T13:26:57.003Z,81.92
2019-02-08T13:28:01.042Z,81.95
2019-02-08T13:29:05.555Z,81.81
2019-02-08T13:30:18.918Z,81.46
2019-02-08T13:31:22.964Z,81.75
2019-02-08T13:32:27.025Z,81.87
2019-02-08T13:33:31.129Z,81.59
2019-02-08T13:34:35.265Z,81.67
2019-02-08T13:35:39.329Z,81.50
2019-02-08T13:36:43.410Z,81.59
2019-02-08T13:37:47.568Z,81.64
2019-02-08T13:38:51.601Z,82.05
2019-02-08T13:39:55.724Z,81.42
2019-02-08T13:40:59.811Z,81.63
2019-02-08T13:42:03.857Z,81.54
2019-02-08T13:43:07.885Z,81.50
2019-02-08T13:44:11.932Z,81.50
2019-02-08T13:45:16.168Z,81.47
2019-02-08T13:46:20.277Z,81.64
2019-02-08T13:47:24.389Z,81.91
2019-02-08T13:48:28.461Z,81.45
2019-02-08T13:49:32.517Z,81.29
2019-02-08T13:50:36.620Z,81.27
2019-02-08T13:51:40.688Z,80.76
2019-02-08T13:52:44.782Z,81.16
2019-02-08T13:53:48.959Z,81.22
2019-02-08T13:54:53.078Z,80.79
2019-02-08T13:55:57.247Z,81.25
2019-02-08T13:57:01.236Z,81.29
2019-02-08T13:58:06.242Z,81.21
2019-02-08T13:59:09.479Z,81.17
2019-02-08T14:00:17.278Z,81.25
2019-02-08T14:01:21.402Z,80.99
2019-02-08T14:02:25.422Z,80.87
2019-02-08T14:03:29.492Z,79.80
2019-02-08T14:04:33.539Z,80.46
2019-02-08T14:05:37.628Z,80.50
2019-02-08T14:06:41.722Z,80.10
2019-02-08T14:07:45.753Z,79.96
2019-02-08T14:08:49.786Z,80.80
2019-02-08T14:09:53.806Z,80.55
2019-02-08T14:10:57.857Z,80.45
2019-02-08T14:12:01.889Z,80.31
2019-02-08T14:13:06.101Z,80.30
2019-02-08T14:14:10.182Z,80.60
2019-02-08T14:15:14.434Z,79.90
2019-02-08T14:16:18.557Z,80.23
2019-02-08T14:17:22.672Z,80.01
2019-02-08T14:18:26.725Z,80.32
2019-02-08T14:19:30.814Z,79.57
2019-02-08T14:20:34.854Z,79.65
2019-02-08T14:21:38.923Z,80.11
2019-02-08T14:22:43.037Z,80.36
2019-02-08T14:23:47.151Z,80.41
2019-02-08T14:24:51.169Z,79.91
2019-02-08T14:25:55.234Z,79.92
2019-02-08T14:26:59.294Z,80.00
2019-02-08T14:28:03.394Z,79.96
2019-02-08T14:29:07.517Z,79.95
2019-02-08T14:30:18.513Z,80.31
2019-02-08T14:31:22.558Z,79.58
2019-02-08T14:32:26.630Z,79.23
2019-02-08T14:33:30.793Z,79.30
2019-02-08T14:34:34.874Z,79.47
2019-02-08T14:35:39.158Z,79.41
2019-02-08T14:36:43.210Z,79.34
2019-02-08T14:37:47.289Z,79.91
2019-02-08T14:38:51.352Z,79.86
2019-02-08T14:39:55.386Z,79.63
2019-02-08T14:40:59.423Z,79.97
2019-02-08T14:42:03.481Z,79.49
2019-02-08T14:43:07.615Z,79.23
2019-02-08T14:44:11.887Z,79.87
2019-02-08T14:45:16.186Z,79.83
2019-02-08T14:46:20.282Z,80.13
2019-02-08T14:47:24.352Z,79.64
2019-02-08T14:48:28.403Z,80.01
2019-02-08T14:49:32.525Z,79.98
2019-02-08T14:50:36.574Z,79.73
2019-02-08T14:51:40.661Z,79.33
2019-02-08T14:52:44.892Z,79.94
2019-02-08T14:53:48.940Z,80.04
2019-02-08T14:54:53.105Z,79.51
2019-02-08T14:55:57.200Z,79.91
2019-02-08T14:57:01.204Z,80.53
2019-02-08T14:58:06.085Z,80.49
2019-02-08T14:59:10.236Z,80.46
2019-02-08T15:00:16.775Z,80.52
2019-02-08T15:01:20.851Z,80.43
2019-02-08T15:02:24.985Z,80.59
2019-02-08T15:03:29.077Z,80.53
2019-02-08T15:04:33.140Z,80.42
2019-02-08T15:05:37.297Z,80.47
2019-02-08T15:06:41.415Z,80.31
2019-02-08T15:07:45.497Z,80.04
2019-02-08T15:08:49.546Z,80.31
2019-02-08T15:09:53.593Z,80.19
2019-02-08T15:10:57.750Z,80.26
2019-02-08T15:12:01.785Z,80.53
2019-02-08T15:13:05.945Z,80.86
2019-02-08T15:14:10.031Z,80.69
2019-02-08T15:15:14.260Z,80.23
2019-02-08T15:16:19.411Z,80.57
2019-02-08T15:17:22.499Z,80.75
2019-02-08T15:18:26.554Z,80.35
2019-02-08T15:19:30.660Z,80.82
2019-02-08T15:20:34.899Z,81.15
2019-02-08T15:21:38.978Z,81.02
2019-02-08T15:22:43.020Z,80.97
2019-02-08T15:23:47.087Z,80.83
2019-02-08T15:24:51.171Z,80.97
2019-02-08T15:25:55.196Z,80.96
2019-02-08T15:26:59.430Z,80.82
2019-02-08T15:28:03.530Z,81.04
2019-02-08T15:29:07.716Z,80.91
2019-02-08T15:30:14.193Z,80.93
2019-02-08T15:31:18.255Z,80.86
2019-02-08T15:32:22.359Z,80.91
2019-02-08T15:33:26.408Z,81.07
2019-02-08T15:34:30.513Z,81.14
2019-02-08T15:35:35.185Z,81.16
2019-02-08T15:36:38.899Z,81.13
2019-02-08T15:37:43.087Z,81.14
2019-02-08T15:38:47.205Z,81.23
2019-02-08T15:39:51.310Z,81.17
2019-02-08T15:40:56.658Z,81.25
2019-02-08T15:42:00.745Z,81.24
2019-02-08T15:43:05.070Z,80.98
2019-02-08T15:44:09.138Z,81.32
2019-02-08T15:45:15.958Z,81.11
2019-02-08T15:46:20.073Z,81.29
2019-02-08T15:47:24.148Z,81.35
2019-02-08T15:48:28.296Z,81.22
2019-02-08T15:49:32.417Z,81.35